createdAt,value
2019-03-15T00:02:48.844Z,11.30
2019-03-15T00:07:52.045Z,17.60
2019-03-15T00:12:55.672Z,8.30
2019-03-15T00:17:58.859Z,10.17
2019-03-15T00:23:02.092Z,19.70
2019-03-15T00:28:05.934Z,10.77
2019-03-15T00:33:12.658Z,5.80
2019-03-15T00:38:15.950Z,4.63
2019-03-15T00:43:19.115Z,5.40
2019-03-15T00:48:22.349Z,9.00
2019-03-15T00:53:25.853Z,7.00
2019-03-15T00:58:28.719Z,15.33
2019-03-15T01:03:32.280Z,12.43
2019-03-15T01:08:35.540Z,7.07
2019-03-15T01:13:38.400Z,13.30
2019-03-15T01:18:41.598Z,9.80
2019-03-15T01:23:44.063Z,7.40
2019-03-15T01:28:47.154Z,10.03
2019-03-15T01:33:50.589Z,10.83
2019-03-15T01:38:53.811Z,11.40
2019-03-15T01:43:57.115Z,11.10
2019-03-15T01:49:00.858Z,10.13
2019-03-15T01:54:03.878Z,5.70
2019-03-15T01:59:06.873Z,6.90
2019-03-15T02:04:10.491Z,9.63
2019-03-15T02:09:13.976Z,9.17
2019-03-15T02:14:17.594Z,5.80
2019-03-15T02:19:20.785Z,20.67
2019-03-15T02:24:24.356Z,11.80
2019-03-15T02:29:27.949Z,8.67
2019-03-15T02:34:30.476Z,11.00
2019-03-15T02:39:33.789Z,6.77
2019-03-15T02:44:36.680Z,9.33
2019-03-15T02:49:40.250Z,7.73
2019-03-15T02:54:42.849Z,12.50
2019-03-15T02:59:47.180Z,10.73
2019-03-15T03:04:50.956Z,19.20
2019-03-15T03:09:54.579Z,2.37
2019-03-15T03:14:58.394Z,3.83
2019-03-15T03:20:01.964Z,5.60
2019-03-15T03:25:05.784Z,17.10
2019-03-15T03:30:09.560Z,7.33
2019-03-15T03:35:12.864Z,5.73
2019-03-15T03:40:19.880Z,6.80
2019-03-15T03:45:23.155Z,8.23
2019-03-15T03:50:25.666Z,7.90
2019-03-15T03:55:28.533Z,8.70
2019-03-15T04:00:31.696Z,8.83
2019-03-15T04:05:35.278Z,10.97
2019-03-15T04:10:38.447Z,8.83
2019-03-15T04:15:42.257Z,15.07
2019-03-15T04:20:46.700Z,9.20
2019-03-15T04:25:49.342Z,9.10
2019-03-15T04:30:52.594Z,11.57
2019-03-15T04:35:55.384Z,15.17
2019-03-15T04:40:58.801Z,9.60
2019-03-15T04:46:00.936Z,11.40
2019-03-15T04:51:04.240Z,8.53
2019-03-15T04:56:07.511Z,12.03
2019-03-15T05:01:11.096Z,11.10
2019-03-15T05:06:14.339Z,17.30
2019-03-15T05:11:16.484Z,22.60
2019-03-15T05:16:19.429Z,18.80
2019-03-15T05:21:22.293Z,16.87
2019-03-15T05:26:25.516Z,12.17
2019-03-15T05:31:28.830Z,16.00
2019-03-15T05:36:32.059Z,28.77
2019-03-15T05:41:34.864Z,32.23
2019-03-15T05:46:37.377Z,12.03
2019-03-15T05:51:40.772Z,24.97
2019-03-15T05:56:44.097Z,21.43
2019-03-15T06:01:47.589Z,33.43
2019-03-15T06:06:50.504Z,34.07
2019-03-15T06:11:53.711Z,26.83
2019-03-15T06:16:56.664Z,40.83
2019-03-15T06:21:59.863Z,41.63
2019-03-15T06:27:03.406Z,29.33
2019-03-15T06:32:11.262Z,53.57
2019-03-15T06:37:14.851Z,41.73
2019-03-15T06:42:18.097Z,53.33
2019-03-15T06:47:21.238Z,40.00
2019-03-15T06:52:24.107Z,56.83
2019-03-15T06:57:27.379Z,32.50
2019-03-15T07:02:30.692Z,43.30
2019-03-15T07:07:34.219Z,39.80
2019-03-15T07:12:39.980Z,44.67
2019-03-15T07:17:42.164Z,47.67
2019-03-15T07:22:45.451Z,44.67
2019-03-15T07:27:48.579Z,47.40
2019-03-15T07:32:52.122Z,57.13
2019-03-15T07:37:55.270Z,48.63
2019-03-15T07:43:02.041Z,40.77
2019-03-15T07:48:02.880Z,43.20
2019-03-15T07:53:06.112Z,44.70
2019-03-15T07:58:09.286Z,48.10
2019-03-15T08:03:12.633Z,57.13
2019-03-15T08:08:17.369Z,46.73
2019-03-15T08:13:20.888Z,59.47
2019-03-15T08:18:24.051Z,27.17
2019-03-15T08:23:27.313Z,53.33
2019-03-15T08:28:30.473Z,52.30
2019-03-15T08:33:33.738Z,40.07
2019-03-15T08:38:46.854Z,31.17
2019-03-15T08:43:41.789Z,38.73
2019-03-15T08:48:44.291Z,49.33
2019-03-15T08:53:47.491Z,58.60
2019-03-15T08:58:50.707Z,29.57
2019-03-15T09:03:54.237Z,34.90
2019-03-15T09:08:57.071Z,32.83
2019-03-15T09:13:59.979Z,32.77
2019-03-15T09:19:03.180Z,41.27
2019-03-15T09:24:06.270Z,39.13
2019-03-15T09:29:09.454Z,40.83
2019-03-15T09:34:12.650Z,42.27
2019-03-15T09:39:15.555Z,44.33
2019-03-15T09:44:19.201Z,39.27
2019-03-15T09:49:22.398Z,27.83
2019-03-15T09:54:26.303Z,37.77
2019-03-15T09:59:30.007Z,29.43
2019-03-15T10:04:35.996Z,38.17
2019-03-15T10:09:45.616Z,30.23
2019-03-15T10:14:44.431Z,28.00
2019-03-15T10:19:47.587Z,42.70
2019-03-15T10:24:50.443Z,33.73
2019-03-15T10:29:53.605Z,34.10
2019-03-15T10:34:57.099Z,37.20
2019-03-15T10:40:00.389Z,28.90
2019-03-15T10:45:04.166Z,33.23
2019-03-15T10:50:07.634Z,30.90
2019-03-15T10:55:11.073Z,28.50
2019-03-15T11:00:15.193Z,31.40
2019-03-15T11:05:19.562Z,23.40
2019-03-15T11:10:22.774Z,29.87
2019-03-15T11:15:25.666Z,17.97
2019-03-15T11:20:28.905Z,28.70
2019-03-15T11:25:32.355Z,29.67
2019-03-15T11:30:35.601Z,22.53
2019-03-15T11:35:38.618Z,30.53
2019-03-15T11:40:41.505Z,14.17
2019-03-15T11:45:44.727Z,22.23
2019-03-15T11:50:48.266Z,30.30
2019-03-15T11:55:50.953Z,27.10
2019-03-15T12:00:53.845Z,17.97
2019-03-15T12:05:57.053Z,22.23
2019-03-15T12:11:00.246Z,16.80
2019-03-15T12:16:03.846Z,16.83
2019-03-15T12:21:07.087Z,24.37
2019-03-15T12:26:10.277Z,21.33
2019-03-15T12:31:12.785Z,23.90
2019-03-15T12:36:15.679Z,21.17
2019-03-15T12:41:19.010Z,18.17
2019-03-15T12:46:22.224Z,13.93
2019-03-15T12:51:32.019Z,10.97
2019-03-15T12:56:30.779Z,6.57
2019-03-15T13:01:34.415Z,6.27
2019-03-15T13:06:37.945Z,5.03
2019-03-15T13:11:41.135Z,4.70
2019-03-15T13:16:44.444Z,8.70
2019-03-15T13:21:47.408Z,16.40
2019-03-15T13:26:50.445Z,18.90
2019-03-15T13:31:53.679Z,16.83
2019-03-15T13:36:57.332Z,19.57
2019-03-15T13:42:00.169Z,36.00
2019-03-15T13:47:03.469Z,31.87
2019-03-15T13:52:07.323Z,39.10
2019-03-15T13:57:20.564Z,39.53
2019-03-15T14:02:15.488Z,38.33
2019-03-15T14:07:20.125Z,31.90
2019-03-15T14:12:24.648Z,23.27
2019-03-15T14:17:28.248Z,26.53
2019-03-15T14:22:31.506Z,42.00
2019-03-15T14:27:37.865Z,23.90
2019-03-15T14:32:40.070Z,27.33
2019-03-15T14:37:43.218Z,29.03
2019-03-15T14:42:47.025Z,27.67
2019-03-15T14:47:50.224Z,45.40
2019-03-15T14:52:52.837Z,33.97
2019-03-15T14:57:56.240Z,30.27
2019-03-15T15:02:59.321Z,18.97
2019-03-15T15:08:03.783Z,25.20
2019-03-15T15:13:07.033Z,21.40
2019-03-15T15:18:10.298Z,20.63
2019-03-15T15:23:13.922Z,33.60
2019-03-15T15:28:16.832Z,34.20
2019-03-15T15:33:19.826Z,31.90
2019-03-15T15:38:23.061Z,45.23
2019-03-15T15:43:26.499Z,54.37
2019-03-15T15:48:29.646Z,27.57
2019-03-15T15:53:32.447Z,31.37
2019-03-15T15:58:36.074Z,29.60
2019-03-15T16:03:39.328Z,34.70
2019-03-15T16:08:41.901Z,33.73
2019-03-15T16:13:45.478Z,37.00
2019-03-15T16:18:49.334Z,32.57
2019-03-15T16:23:52.651Z,28.60
2019-03-15T16:28:55.560Z,21.57
2019-03-15T16:33:59.068Z,39.90
2019-03-15T16:39:02.914Z,25.57
2019-03-15T16:44:05.797Z,23.37
2019-03-15T16:49:08.789Z,34.40
2019-03-15T16:54:12.123Z,31.03
2019-03-15T16:59:15.314Z,30.53
2019-03-15T17:04:18.306Z,28.97
2019-03-15T17:09:21.875Z,32.30
2019-03-15T17:14:26.771Z,34.43
2019-03-15T17:19:31.050Z,23.17
2019-03-15T17:24:34.528Z,25.07
2019-03-15T17:29:38.319Z,36.77
2019-03-15T17:34:41.983Z,30.40
2019-03-15T17:39:45.365Z,37.97
2019-03-15T17:44:48.924Z,35.87
2019-03-15T17:49:52.250Z,29.10
2019-03-15T17:54:54.884Z,48.47
2019-03-15T18:00:28.405Z,32.73
2019-03-15T18:05:31.346Z,36.77
2019-03-15T18:10:34.668Z,33.77
2019-03-15T18:15:38.824Z,27.13
2019-03-15T18:20:42.354Z,29.50
2019-03-15T18:25:45.758Z,43.60
2019-03-15T18:30:49.550Z,21.40
2019-03-15T18:35:53.132Z,16.63
2019-03-15T18:40:56.179Z,17.20
2019-03-15T18:45:59.484Z,28.50
2019-03-15T18:51:03.223Z,27.00
2019-03-15T18:56:07.572Z,24.60
2019-03-15T19:01:11.364Z,16.50
2019-03-15T19:06:15.014Z,23.43
2019-03-15T19:11:19.034Z,11.60
2019-03-15T19:16:23.201Z,11.07
2019-03-15T19:21:27.480Z,18.50
2019-03-15T19:26:31.632Z,17.60
2019-03-15T19:31:34.808Z,16.77
2019-03-15T19:36:38.704Z,11.93
2019-03-15T19:41:44.850Z,13.27
2019-03-15T19:46:51.731Z,16.20
2019-03-15T19:51:57.897Z,10.90
2019-03-15T19:57:05.674Z,10.50
2019-03-15T20:02:09.936Z,21.97
2019-03-15T20:07:17.385Z,16.33
2019-03-15T20:12:25.368Z,32.30
2019-03-15T20:17:32.629Z,24.70
2019-03-15T20:22:39.689Z,27.77
2019-03-15T20:27:48.129Z,22.90
2019-03-15T20:32:54.050Z,14.10
2019-03-15T20:38:02.665Z,15.97
2019-03-15T20:43:10.202Z,16.17
2019-03-15T20:48:21.794Z,14.23
2019-03-15T20:53:30.395Z,23.40
2019-03-15T20:58:39.481Z,22.53
2019-03-15T21:03:56.034Z,16.87
2019-03-15T21:08:58.103Z,27.73
2019-03-15T21:14:06.168Z,27.17
2019-03-15T21:19:12.473Z,21.90
2019-03-15T21:24:19.189Z,22.80
2019-03-15T21:29:27.127Z,28.50
2019-03-15T21:34:35.139Z,14.67
2019-03-15T21:39:39.733Z,20.23
2019-03-15T21:44:43.085Z,21.00
2019-03-15T21:49:46.747Z,18.97
2019-03-15T21:54:49.962Z,29.57
2019-03-15T21:59:53.761Z,39.13
2019-03-15T22:04:57.091Z,37.43
2019-03-15T22:10:00.664Z,33.67
2019-03-15T22:15:07.249Z,41.60
2019-03-15T22:20:10.363Z,51.40
2019-03-15T22:25:13.446Z,46.67
2019-03-15T22:30:17.023Z,53.07
2019-03-15T22:35:19.765Z,53.93
2019-03-15T22:40:22.682Z,50.37
2019-03-15T22:45:25.586Z,49.20
2019-03-15T22:50:29.269Z,49.13
2019-03-15T22:55:32.509Z,60.43
2019-03-15T23:00:37.288Z,56.93
2019-03-15T23:05:40.437Z,75.83
2019-03-15T23:10:46.922Z,47.40
2019-03-15T23:15:48.299Z,50.70
2019-03-15T23:20:51.189Z,37.30
2019-03-15T23:25:54.362Z,53.40
2019-03-15T23:30:57.627Z,52.30
2019-03-15T23:36:00.251Z,43.67
2019-03-15T23:41:03.903Z,56.03
2019-03-15T23:46:07.555Z,60.30
2019-03-15T23:51:10.719Z,57.63
2019-03-15T23:56:13.953Z,36.97
